Time;durP1;ratioP1;P1;durP2;ratioP2;P2;SDS_P1;SDS_P2;PMS_P1;PMS_P2;Temp;Humidity;BMP_temperature;BMP_pressure;BME280_temperature;BME280_humidity;BME280_pressure;Samples;Min_cycle;Max_cycle;Signal;HPM_P1;HPM_P2
2022/09/02 00:00:44;;;;;;;8.88;1.10;;;;;;;19.45;42.63;98866.06;5133164;27;20455;-70
2022/09/02 00:03:29;;;;;;;2.53;0.30;;;;;;;19.49;42.66;98870.00;5139465;27;20051;-68
2022/09/02 00:05:56;;;;;;;3.13;0.35;;;;;;;19.48;42.59;98867.53;5134125;27;20035;-69
2022/09/02 00:08:22;;;;;;;2.42;0.32;;;;;;;19.47;42.72;98872.09;5135137;27;20031;-70
2022/09/02 00:10:47;;;;;;;2.67;0.30;;;;;;;19.50;42.55;98874.34;5135811;27;20057;-70
2022/09/02 00:13:16;;;;;;;1.15;0.30;;;;;;;19.50;42.63;98877.03;5136053;27;20034;-70
2022/09/02 00:15:42;;;;;;;0.22;0.10;;;;;;;19.50;42.46;98877.03;5132372;27;20047;-69
2022/09/02 00:18:11;;;;;;;1.02;0.38;;;;;;;19.50;42.63;98879.72;5135007;27;20059;-69
2022/09/02 00:20:38;;;;;;;3.65;0.30;;;;;;;19.49;42.33;98870.00;5135390;27;20046;-70
2022/09/02 00:23:04;;;;;;;4.28;0.43;;;;;;;19.49;42.37;98869.19;5134728;27;20092;-69
2022/09/02 00:25:30;;;;;;;6.60;0.65;;;;;;;19.49;42.39;98877.25;5134679;27;20088;-68
2022/09/02 00:27:56;;;;;;;11.00;0.88;;;;;;;19.49;42.38;98871.88;5128011;27;20147;-69
2022/09/02 00:30:21;;;;;;;10.13;0.60;;;;;;;19.50;42.27;98884.28;5128120;27;20432;-69
2022/09/02 00:32:47;;;;;;;4.93;0.75;;;;;;;19.50;42.43;98877.03;5135623;27;20041;-69
2022/09/02 00:35:12;;;;;;;5.88;0.85;;;;;;;19.52;42.43;98877.66;5135234;27;20027;-69
2022/09/02 00:37:38;;;;;;;6.40;0.50;;;;;;;19.50;42.32;98866.31;5132771;27;20134;-69
2022/09/02 00:40:05;;;;;;;10.52;0.70;;;;;;;19.51;42.38;98869.81;5135169;27;20035;-69
2022/09/02 00:42:32;;;;;;;6.50;0.40;;;;;;;19.48;42.45;98876.41;5133695;27;20031;-69
2022/09/02 00:44:57;;;;;;;0.75;0.22;;;;;;;19.49;42.29;98867.31;5134815;27;20037;-69
2022/09/02 00:47:24;;;;;;;3.60;0.55;;;;;;;19.48;42.33;98871.03;5134629;27;20481;-69
2022/09/02 00:49:53;;;;;;;3.22;0.40;;;;;;;19.47;42.31;98869.41;5135245;27;20389;-69
2022/09/02 00:52:30;;;;;;;2.30;0.40;;;;;;;19.46;42.13;98866.91;5133846;27;20030;-69
2022/09/02 00:55:01;;;;;;;2.38;0.47;;;;;;;19.44;42.13;98874.31;5134832;27;20556;-69
2022/09/02 00:57:40;;;;;;;2.95;1.25;;;;;;;19.43;42.02;98876.16;5120763;27;20043;-69
2022/09/02 01:00:16;;;;;;;3.17;0.65;;;;;;;19.44;42.08;98879.66;5114259;28;20039;-69
2022/09/02 01:02:45;;;;;;;5.85;0.40;;;;;;;19.41;42.15;98872.03;5130253;27;20493;-68
2022/09/02 01:05:14;;;;;;;0.38;0.20;;;;;;;19.42;42.21;98876.34;5132541;27;20042;-69
2022/09/02 01:07:40;;;;;;;2.22;0.43;;;;;;;19.42;42.41;98874.50;5128619;27;20061;-69
2022/09/02 01:10:10;;;;;;;1.45;0.30;;;;;;;19.43;42.36;98878.00;5133677;27;20035;-69
2022/09/02 01:12:37;;;;;;;4.93;0.98;;;;;;;19.43;42.24;98869.97;5132861;27;20557;-69
2022/09/02 01:15:05;;;;;;;2.65;0.50;;;;;;;19.43;42.15;98873.50;5134643;27;20397;-69
2022/09/02 01:17:33;;;;;;;1.80;0.28;;;;;;;19.42;42.23;98874.50;5132849;27;20070;-69
2022/09/02 01:20:13;;;;;;;0.85;0.38;;;;;;;19.41;42.23;98867.47;5130342;27;20039;-68
2022/09/02 01:22:40;;;;;;;1.27;0.30;;;;;;;19.41;42.34;98872.84;5129020;27;20498;-69
2022/09/02 01:25:19;;;;;;;0.85;0.30;;;;;;;19.41;42.30;98864.81;5134198;27;20035;-69
2022/09/02 01:27:47;;;;;;;3.08;0.50;;;;;;;19.42;42.15;98865.63;5133677;27;20031;-69
2022/09/02 01:30:17;;;;;;;2.80;0.20;;;;;;;19.39;42.23;98866.03;5134397;27;20055;-69
2022/09/02 01:32:42;;;;;;;1.25;0.20;;;;;;;19.38;42.38;98875.91;5129504;27;20053;-69
2022/09/02 01:35:08;;;;;;;4.05;0.40;;;;;;;19.39;42.24;98874.06;5134079;27;20121;-69
2022/09/02 01:37:34;;;;;;;0.70;0.40;;;;;;;19.38;42.39;98892.00;5133864;27;20035;-69
2022/09/02 01:39:59;;;;;;;0.80;0.20;;;;;;;19.39;42.19;98892.84;5133685;27;20049;-69
2022/09/02 01:42:25;;;;;;;0.70;0.30;;;;;;;19.34;42.22;98885.38;5133326;27;20045;-69
2022/09/02 01:44:51;;;;;;;1.17;0.30;;;;;;;19.35;42.53;98887.88;5133897;27;20035;-70
2022/09/02 01:47:23;;;;;;;0.20;0.10;;;;;;;19.36;42.38;98897.59;5133156;27;20118;-70
2022/09/02 01:49:49;;;;;;;1.17;0.22;;;;;;;19.37;42.63;98893.03;5133508;27;20035;-69
2022/09/02 01:52:16;;;;;;;0.60;0.20;;;;;;;19.36;42.70;98894.06;5133971;27;20397;-69
2022/09/02 01:54:43;;;;;;;3.40;0.15;;;;;;;19.38;42.84;98893.88;5133826;27;20514;-70
2022/09/02 01:57:09;;;;;;;0.38;0.20;;;;;;;19.38;42.56;98899.25;5132712;27;21075;-70
2022/09/02 01:59:34;;;;;;;0.90;0.30;;;;;;;19.36;42.80;98894.91;5134536;27;20035;-70
2022/09/02 02:02:00;;;;;;;3.05;0.20;;;;;;;19.38;42.89;98902.75;5133165;27;20035;-70
2022/09/02 02:04:26;;;;;;;2.30;0.30;;;;;;;19.38;42.83;98907.28;5133051;27;20065;-70
2022/09/02 02:06:52;;;;;;;2.83;0.22;;;;;;;19.36;42.81;98899.41;5133466;27;20031;-69
2022/09/02 02:09:18;;;;;;;0.80;0.20;;;;;;;19.38;42.84;98915.34;5133597;27;20049;-70
2022/09/02 02:11:44;;;;;;;0.63;0.20;;;;;;;19.35;42.73;98913.84;5133759;27;20118;-70
2022/09/02 02:14:10;;;;;;;0.95;0.20;;;;;;;19.38;42.79;98912.66;5133470;27;20396;-70
2022/09/02 02:16:36;;;;;;;0.55;0.20;;;;;;;19.35;42.79;98908.47;5124789;27;20035;-70
2022/09/02 02:19:02;;;;;;;0.47;0.20;;;;;;;19.34;42.86;98905.00;5132549;27;20196;-70
2022/09/02 02:21:28;;;;;;;0.22;0.20;;;;;;;19.34;42.60;98913.03;5135191;27;20035;-70
2022/09/02 02:23:53;;;;;;;0.22;0.03;;;;;;;19.34;42.74;98907.66;5133784;28;20042;-69
2022/09/02 02:26:19;;;;;;;0.32;0.13;;;;;;;19.33;42.79;98915.91;5133356;27;20023;-69
2022/09/02 02:28:44;;;;;;;2.42;0.50;;;;;;;19.32;42.81;98911.59;5134296;28;20384;-69
2022/09/02 02:31:10;;;;;;;0.55;0.25;;;;;;;19.32;42.56;98914.25;5119960;27;20027;-69
2022/09/02 02:33:37;;;;;;;1.33;0.20;;;;;;;19.30;42.76;98911.75;5131233;27;20046;-69
2022/09/02 02:36:05;;;;;;;0.08;0.03;;;;;;;19.32;42.78;98909.72;5133349;27;20512;-69
2022/09/02 02:38:32;;;;;;;0.52;0.20;;;;;;;19.29;42.82;98907.41;5133319;28;20554;-69
2022/09/02 02:40:58;;;;;;;0.40;0.10;;;;;;;19.31;42.86;98917.97;5131348;27;20029;-69
2022/09/02 02:43:25;;;;;;;0.65;0.10;;;;;;;19.28;42.75;98911.13;5133684;27;20035;-68
2022/09/02 02:45:51;;;;;;;0.60;0.10;;;;;;;19.30;42.67;98929.72;5132235;27;20370;-69
2022/09/02 02:48:16;;;;;;;0.40;0.13;;;;;;;19.28;42.79;98926.38;5133395;27;20106;-69
2022/09/02 02:50:42;;;;;;;0.47;0.30;;;;;;;19.28;42.84;98926.38;5132513;28;20037;-69
2022/09/02 02:53:07;;;;;;;1.15;0.40;;;;;;;19.29;42.57;98920.00;5133320;27;20034;-69
2022/09/02 02:55:34;;;;;;;0.28;0.10;;;;;;;19.28;42.78;98932.56;5131640;28;20035;-69
2022/09/02 02:58:00;;;;;;;1.05;0.13;;;;;;;19.28;42.56;98935.25;5131540;27;20046;-70
2022/09/02 03:00:29;;;;;;;0.93;0.20;;;;;;;19.27;42.72;98933.59;5132840;27;20146;-69
2022/09/02 03:02:59;;;;;;;0.68;0.20;;;;;;;19.27;42.83;98938.94;5132353;28;20113;-69
2022/09/02 03:05:25;;;;;;;0.20;0.10;;;;;;;19.27;42.79;98935.47;5133927;27;20415;-70
2022/09/02 03:07:51;;;;;;;0.30;0.10;;;;;;;19.27;42.71;98935.47;5135085;27;20053;-69
2022/09/02 03:10:18;;;;;;;0.10;0.10;;;;;;;19.26;42.73;98937.31;5137028;27;20043;-69
2022/09/02 03:12:46;;;;;;;0.30;0.15;;;;;;;19.27;42.76;98938.94;5133910;27;20424;-69
2022/09/02 03:15:14;;;;;;;3.20;0.28;;;;;;;19.28;42.74;98947.84;5136664;27;20038;-69
2022/09/02 03:17:40;;;;;;;0.32;0.20;;;;;;;19.29;42.92;98949.50;5134869;27;20045;-69
2022/09/02 03:20:06;;;;;;;0.10;0.10;;;;;;;19.28;42.82;98950.53;5136927;27;20039;-69
2022/09/02 03:22:34;;;;;;;0.38;0.10;;;;;;;19.27;42.64;98946.19;5136598;27;20031;-69
2022/09/02 03:25:00;;;;;;;0.25;0.10;;;;;;;19.29;42.77;98949.50;5136697;27;20043;-69
2022/09/02 03:27:26;;;;;;;0.75;0.38;;;;;;;19.29;42.75;98941.47;5135948;27;20031;-70
2022/09/02 03:29:51;;;;;;;0.00;0.00;;;;;;;19.27;42.64;98938.94;5146967;27;20034;-69
2022/09/02 03:32:17;;;;;;;0.20;0.10;;;;;;;19.28;42.71;98950.53;5135559;27;20042;-69
2022/09/02 03:34:42;;;;;;;1.92;0.10;;;;;;;19.28;42.65;98950.53;5136758;27;20209;-69
2022/09/02 03:37:08;;;;;;;0.82;0.20;;;;;;;19.28;42.63;98953.22;5135822;27;20577;-69
2022/09/02 03:39:35;;;;;;;1.52;0.10;;;;;;;19.29;42.40;98949.50;5136416;27;20027;-69
2022/09/02 03:42:00;;;;;;;0.30;0.10;;;;;;;19.29;42.55;98957.56;5135996;27;20035;-69
2022/09/02 03:44:26;;;;;;;0.43;0.15;;;;;;;19.26;42.44;98950.72;5136511;27;20030;-69
2022/09/02 03:46:52;;;;;;;0.10;0.05;;;;;;;19.27;42.63;98957.72;5136046;27;20046;-69
2022/09/02 03:49:17;;;;;;;0.32;0.20;;;;;;;19.28;42.67;98954.03;5136235;27;20034;-69
2022/09/02 03:51:43;;;;;;;0.55;0.10;;;;;;;19.29;42.69;98957.56;5135854;27;20171;-69
2022/09/02 03:54:09;;;;;;;0.30;0.13;;;;;;;19.32;42.77;98954.50;5136348;27;20027;-69
2022/09/02 03:56:35;;;;;;;0.70;0.10;;;;;;;19.34;42.89;98972.06;5135666;27;20031;-69
2022/09/02 03:59:01;;;;;;;1.23;0.10;;;;;;;19.36;42.93;98967.31;5136514;27;20034;-70
2022/09/02 04:01:27;;;;;;;0.30;0.00;;;;;;;19.38;42.79;98967.13;5135506;27;20039;-70
2022/09/02 04:03:53;;;;;;;0.10;0.10;;;;;;;19.38;42.82;98972.47;5135991;27;20035;-70
2022/09/02 04:06:21;;;;;;;0.22;0.10;;;;;;;19.39;42.59;98976.84;5135330;27;20034;-70
2022/09/02 04:08:48;;;;;;;0.25;0.20;;;;;;;19.38;42.71;98983.22;5135786;27;20054;-69
2022/09/02 04:11:17;;;;;;;0.25;0.13;;;;;;;19.40;42.65;98983.84;5135093;27;20398;-69
2022/09/02 04:13:44;;;;;;;0.55;0.10;;;;;;;19.40;42.81;98988.41;5135143;27;20073;-70
2022/09/02 04:16:17;;;;;;;0.15;0.10;;;;;;;19.39;42.79;98979.50;5135436;27;20031;-70
2022/09/02 04:18:43;;;;;;;0.25;0.10;;;;;;;19.39;42.71;98989.44;5135398;27;20089;-71
2022/09/02 04:21:08;;;;;;;0.22;0.03;;;;;;;19.40;42.95;98988.41;5135740;27;20051;-69
2022/09/02 04:23:35;;;;;;;0.47;0.10;;;;;;;19.38;42.96;98988.59;5135504;27;20398;-69
2022/09/02 04:26:10;;;;;;;0.32;0.10;;;;;;;19.37;42.73;98981.56;5136210;27;20142;-69
2022/09/02 04:28:35;;;;;;;0.10;0.08;;;;;;;19.38;42.88;98990.44;5140048;27;20524;-69
2022/09/02 04:31:09;;;;;;;0.80;0.20;;;;;;;19.36;42.57;98983.41;5135352;27;20080;-69
2022/09/02 04:33:35;;;;;;;2.38;0.20;;;;;;;19.36;42.70;98979.88;5134904;27;20042;-69
2022/09/02 04:36:05;;;;;;;0.47;0.10;;;;;;;19.38;42.75;98985.09;5134646;27;20039;-69
2022/09/02 04:38:31;;;;;;;0.60;0.10;;;;;;;19.38;42.71;98983.22;5128102;27;20400;-70
2022/09/02 04:40:57;;;;;;;0.00;0.00;;;;;;;19.39;42.65;98994.78;5134357;27;20114;-70
2022/09/02 04:43:22;;;;;;;1.02;0.10;;;;;;;19.39;42.42;98997.47;5135382;27;20126;-70
2022/09/02 04:45:48;;;;;;;0.20;0.10;;;;;;;19.38;42.13;98995.81;5134389;27;20110;-68
2022/09/02 04:48:13;;;;;;;0.00;0.00;;;;;;;19.39;42.39;98992.94;5135314;27;20447;-70
2022/09/02 04:50:40;;;;;;;0.17;0.10;;;;;;;19.40;42.42;99001.81;5134614;27;20037;-70
2022/09/02 04:53:06;;;;;;;0.20;0.10;;;;;;;19.41;42.30;98998.13;5134785;27;20038;-70
2022/09/02 04:55:31;;;;;;;0.70;0.10;;;;;;;19.42;42.17;99005.97;5134843;27;20423;-67
2022/09/02 04:57:57;;;;;;;1.58;0.32;;;;;;;19.41;42.23;99015.03;5134654;27;20051;-70
2022/09/02 05:00:23;;;;;;;0.55;0.55;;;;;;;19.42;42.30;99005.97;5133951;27;20038;-70
2022/09/02 05:02:49;;;;;;;0.25;0.13;;;;;;;19.43;42.33;99009.47;5134078;27;20026;-70
2022/09/02 05:05:15;;;;;;;0.77;0.77;;;;;;;19.44;42.27;99014.66;5134343;27;20042;-70
2022/09/02 05:07:41;;;;;;;0.45;0.15;;;;;;;19.42;42.53;99005.97;5134849;27;20366;-71
2022/09/02 05:10:07;;;;;;;3.58;0.30;;;;;;;19.42;42.56;99010.47;5134328;27;20097;-71
2022/09/02 05:12:34;;;;;;;1.42;0.20;;;;;;;19.44;42.74;99009.28;5134086;27;20078;-70
2022/09/02 05:15:00;;;;;;;2.88;0.30;;;;;;;19.46;42.74;99017.13;5133610;27;20108;-70
2022/09/02 05:17:27;;;;;;;2.00;0.30;;;;;;;19.52;42.39;99014.50;5133447;27;20068;-70
2022/09/02 05:19:53;;;;;;;1.55;1.15;;;;;;;19.52;42.14;99022.56;5134914;27;20129;-70
2022/09/02 05:22:19;;;;;;;3.05;2.60;;;;;;;19.52;42.41;99019.88;5133920;27;20034;-70
2022/09/02 05:24:45;;;;;;;4.95;4.45;;;;;;;19.52;42.31;99027.94;5133089;27;20073;-70
2022/09/02 05:27:11;;;;;;;12.13;7.80;;;;;;;19.55;42.53;99032.09;5133277;27;20062;-70
2022/09/02 05:29:37;;;;;;;15.77;9.18;;;;;;;19.60;42.34;99031.53;5134404;27;20490;-70
2022/09/02 05:32:03;;;;;;;17.92;9.75;;;;;;;19.65;42.02;99037.13;5133485;27;20130;-70
2022/09/02 05:34:29;;;;;;;15.60;9.40;;;;;;;19.74;41.60;99043.19;5133971;27;20035;-70
2022/09/02 05:36:56;;;;;;;16.10;7.85;;;;;;;19.95;40.98;99043.22;5138373;27;20049;-70
2022/09/02 05:39:21;;;;;;;14.48;6.15;;;;;;;20.30;40.17;99045.13;5133904;27;20560;-70
2022/09/02 05:41:47;;;;;;;16.63;9.38;;;;;;;20.22;40.27;99042.59;5127005;27;20122;-70
2022/09/02 05:44:12;;;;;;;13.45;6.18;;;;;;;20.12;39.83;99049.13;5131985;27;20023;-70
2022/09/02 05:46:37;;;;;;;13.10;8.73;;;;;;;20.05;40.34;99056.31;5132168;27;20103;-70
2022/09/02 05:49:16;;;;;;;23.23;8.85;;;;;;;19.99;40.70;99056.25;5133604;27;20171;-70
2022/09/02 05:51:41;;;;;;;15.07;8.88;;;;;;;19.96;40.79;99057.47;5134046;27;20061;-70
2022/09/02 05:54:09;;;;;;;14.13;9.75;;;;;;;19.93;41.17;99061.38;5133571;27;20087;-70
2022/09/02 05:56:38;;;;;;;18.05;10.02;;;;;;;19.89;41.45;99060.09;5133677;27;20121;-70
2022/09/02 05:59:05;;;;;;;20.65;11.02;;;;;;;19.88;41.96;99054.91;5133904;27;20031;-69
2022/09/02 06:01:31;;;;;;;16.88;10.15;;;;;;;19.88;41.83;99060.28;5132934;27;20035;-70
2022/09/02 06:03:57;;;;;;;20.98;9.05;;;;;;;19.86;41.93;99063.13;5132471;27;20509;-67
2022/09/02 06:06:23;;;;;;;19.90;9.60;;;;;;;19.88;42.09;99061.09;5133081;27;20567;-67
2022/09/02 06:08:49;;;;;;;16.10;9.85;;;;;;;19.86;42.24;99065.00;5131796;27;20027;-68
2022/09/02 06:11:16;;;;;;;15.25;6.55;;;;;;;19.87;42.11;99067.50;5131853;27;20042;-65
2022/09/02 06:13:42;;;;;;;16.20;6.18;;;;;;;19.86;42.00;99071.19;5131646;27;20043;-66
2022/09/02 06:16:12;;;;;;;16.73;5.68;;;;;;;19.81;41.41;99077.13;5132679;27;20041;-67
2022/09/02 06:18:38;;;;;;;17.85;5.47;;;;;;;19.76;41.78;99073.38;5133152;28;20054;-65
2022/09/02 06:21:04;;;;;;;10.98;4.65;;;;;;;19.72;41.75;99075.59;5137156;27;20041;-65
2022/09/02 06:23:34;;;;;;;7.78;4.50;;;;;;;19.71;41.93;99086.50;5133095;27;20405;-66
2022/09/02 06:25:59;;;;;;;11.20;4.70;;;;;;;19.69;41.81;99086.72;5132692;28;20042;-65
2022/09/02 06:28:25;;;;;;;9.40;5.03;;;;;;;19.66;42.13;99084.41;5143702;27;20031;-66
2022/09/02 06:30:51;;;;;;;8.30;3.97;;;;;;;19.64;42.14;99089.97;5130872;27;20040;-67
2022/09/02 06:33:16;;;;;;;9.82;2.97;;;;;;;19.64;41.84;99105.25;5132046;27;20401;-70
2022/09/02 06:35:44;;;;;;;8.45;3.55;;;;;;;19.63;41.68;99101.75;5131406;27;20038;-65
2022/09/02 06:38:11;;;;;;;5.57;2.75;;;;;;;19.62;41.82;99097.38;5133574;27;20043;-68
2022/09/02 06:40:49;;;;;;;6.07;2.45;;;;;;;19.62;41.59;99110.00;5136262;27;20041;-67
2022/09/02 06:43:14;;;;;;;10.02;2.90;;;;;;;19.60;42.10;99114.72;5136605;27;20043;-66
2022/09/02 06:45:40;;;;;;;4.55;2.17;;;;;;;19.60;41.75;99103.97;5137656;27;20558;-68
2022/09/02 06:48:06;;;;;;;3.45;1.10;;;;;;;19.61;41.19;99113.69;5137531;27;20102;-65
2022/09/02 06:50:32;;;;;;;6.45;2.65;;;;;;;19.61;41.44;99127.13;5136583;27;20121;-65
2022/09/02 06:52:57;;;;;;;3.17;1.83;;;;;;;19.60;41.45;99125.44;5137166;27;20034;-66
2022/09/02 06:55:23;;;;;;;3.42;1.38;;;;;;;19.59;41.44;99123.78;5136910;27;20039;-66
2022/09/02 06:57:49;;;;;;;1.67;1.00;;;;;;;19.60;41.30;99120.91;5145280;27;20034;-67
2022/09/02 07:00:15;;;;;;;4.43;1.42;;;;;;;19.62;41.67;99116.19;5155561;27;20073;-68
2022/09/02 07:02:41;;;;;;;3.80;0.95;;;;;;;19.65;41.68;99118.47;5157644;27;20027;-68
2022/09/02 07:05:13;;;;;;;2.83;1.48;;;;;;;19.68;41.53;99122.63;5157791;27;20041;-66
2022/09/02 07:07:42;;;;;;;3.90;1.20;;;;;;;19.72;41.40;99126.59;5119657;27;20409;-67
2022/09/02 07:10:11;;;;;;;5.05;1.10;;;;;;;19.75;41.39;99123.53;5137063;27;20114;-66
2022/09/02 07:12:38;;;;;;;4.47;1.30;;;;;;;19.80;41.42;99129.16;5136489;27;20030;-69
2022/09/02 07:15:05;;;;;;;1.70;0.90;;;;;;;19.79;41.16;99132.84;5136794;27;20027;-68
2022/09/02 07:17:31;;;;;;;1.38;0.82;;;;;;;19.75;41.13;99134.28;5137389;27;20138;-66
2022/09/02 07:19:59;;;;;;;1.73;0.93;;;;;;;19.74;41.18;99140.66;5137039;27;20528;-65
2022/09/02 07:22:26;;;;;;;1.45;0.93;;;;;;;19.70;40.72;99147.44;5136185;27;20035;-65
2022/09/02 07:24:51;;;;;;;4.60;0.82;;;;;;;19.67;40.69;99148.66;5137330;27;20035;-67
2022/09/02 07:27:19;;;;;;;0.35;0.30;;;;;;;19.69;40.75;99147.63;5136628;27;20410;-65
2022/09/02 07:29:47;;;;;;;2.83;0.60;;;;;;;19.69;40.40;99145.78;5136434;27;20038;-65
2022/09/02 07:32:13;;;;;;;3.63;0.85;;;;;;;19.67;40.67;99148.66;5136206;27;20081;-66
2022/09/02 07:34:38;;;;;;;2.70;0.60;;;;;;;19.66;40.76;99147.00;5135996;27;20070;-66
2022/09/02 07:37:04;;;;;;;2.70;0.60;;;;;;;19.68;40.36;99154.84;5135861;27;20031;-67
2022/09/02 07:39:29;;;;;;;1.52;0.60;;;;;;;19.66;40.67;99154.19;5135840;27;20070;-67
2022/09/02 07:41:55;;;;;;;3.55;0.98;;;;;;;19.63;40.84;99152.72;5136076;27;20031;-66
2022/09/02 07:44:21;;;;;;;2.53;0.90;;;;;;;19.65;40.58;99145.31;5136190;27;20031;-67
2022/09/02 07:46:46;;;;;;;1.10;0.32;;;;;;;19.63;39.93;99138.50;5136246;27;20070;-65
2022/09/02 07:49:14;;;;;;;3.25;0.73;;;;;;;19.63;39.91;99152.72;5136116;27;20059;-65
2022/09/02 07:51:42;;;;;;;1.52;0.60;;;;;;;19.63;40.26;99151.91;5136030;27;20039;-67
2022/09/02 07:54:09;;;;;;;1.95;0.95;;;;;;;19.62;40.57;99164.47;5144062;27;20039;-67
2022/09/02 07:56:35;;;;;;;3.35;0.75;;;;;;;19.62;40.32;99155.63;5152398;27;20440;-67
2022/09/02 07:59:01;;;;;;;5.07;2.13;;;;;;;19.61;40.42;99162.00;5154569;27;20061;-67
2022/09/02 08:01:27;;;;;;;1.20;0.75;;;;;;;19.62;40.51;99182.44;5136201;27;20041;-66
2022/09/02 08:03:53;;;;;;;1.30;0.80;;;;;;;19.64;40.95;99180.38;5136254;27;20513;-65
2022/09/02 08:06:20;;;;;;;1.92;0.88;;;;;;;19.67;40.86;99185.38;5135413;27;20102;-66
2022/09/02 08:08:46;;;;;;;2.08;0.98;;;;;;;19.71;40.82;99186.69;5136193;27;20069;-68
2022/09/02 08:11:11;;;;;;;3.38;1.20;;;;;;;19.78;40.87;99181.38;5135180;27;20039;-66
2022/09/02 08:13:38;;;;;;;2.08;1.02;;;;;;;19.79;40.88;99170.44;5135778;27;20039;-65
2022/09/02 08:16:04;;;;;;;2.67;1.05;;;;;;;19.82;40.66;99163.88;5154929;27;20031;-66
2022/09/02 08:18:30;;;;;;;6.03;1.40;;;;;;;19.83;40.93;99190.53;5142195;27;20039;-67
2022/09/02 08:20:56;;;;;;;3.60;1.00;;;;;;;19.87;40.85;99195.56;5132352;27;20031;-66
2022/09/02 08:23:22;;;;;;;1.98;1.15;;;;;;;19.89;40.58;99193.50;5135958;27;20374;-66
2022/09/02 08:25:47;;;;;;;3.90;0.88;;;;;;;19.90;40.37;99195.19;5134259;27;20039;-68
2022/09/02 08:28:13;;;;;;;1.08;0.43;;;;;;;19.94;40.35;99207.19;5134592;27;20098;-66
2022/09/02 08:30:39;;;;;;;4.63;0.80;;;;;;;19.94;40.77;99215.22;5132830;27;20036;-65
2022/09/02 08:33:04;;;;;;;8.18;1.65;;;;;;;19.97;40.93;99220.22;5135627;27;20133;-69
2022/09/02 08:35:30;;;;;;;2.35;0.40;;;;;;;20.00;40.70;99221.72;5133430;27;20042;-65
2022/09/02 08:37:58;;;;;;;2.25;0.40;;;;;;;20.00;40.63;99227.91;5140873;27;20031;-65
2022/09/02 08:40:35;;;;;;;2.95;0.57;;;;;;;20.00;40.49;99227.09;5133721;27;20091;-68
2022/09/02 08:43:04;;;;;;;0.70;0.40;;;;;;;19.97;40.46;99222.91;5126400;27;20035;-65
2022/09/02 08:45:36;;;;;;;1.08;0.52;;;;;;;19.96;40.11;99216.72;5134619;27;20031;-66
2022/09/02 08:48:36;;;;;;;0.63;0.32;;;;;;;19.96;40.15;99216.72;5134860;27;20437;-66
2022/09/02 08:51:09;;;;;;;0.77;0.28;;;;;;;19.94;40.20;99225.97;5117083;27;21328;-65
2022/09/02 08:53:51;;;;;;;0.40;0.22;;;;;;;19.96;40.09;99219.41;5134384;27;20035;-66
2022/09/02 08:56:17;;;;;;;0.98;0.40;;;;;;;19.97;40.06;99223.75;5132437;27;20488;-65
2022/09/02 08:58:48;;;;;;;4.03;0.40;;;;;;;20.00;40.05;99221.72;5134117;27;20147;-66
2022/09/02 09:01:39;;;;;;;2.67;0.35;;;;;;;20.00;39.90;99224.41;5135040;27;20087;-68
2022/09/02 09:04:20;;;;;;;0.55;0.20;;;;;;;19.98;39.80;99229.94;5134546;27;20062;-67
2022/09/02 09:07:04;;;;;;;3.72;0.52;;;;;;;19.97;39.84;99231.81;5134805;27;20034;-65
2022/09/02 09:10:00;;;;;;;2.05;0.40;;;;;;;19.99;39.77;99220.88;5134739;27;20104;-68
2022/09/02 09:12:51;;;;;;;0.85;0.30;;;;;;;19.98;39.55;99235.31;5133810;27;20045;-67
2022/09/02 09:15:53;;;;;;;0.38;0.30;;;;;;;19.96;39.54;99238.22;5134784;27;20027;-66
2022/09/02 09:18:29;;;;;;;0.45;0.20;;;;;;;19.94;39.32;99218.78;5133913;27;20130;-68
2022/09/02 09:20:54;;;;;;;0.32;0.30;;;;;;;19.92;39.18;99233.41;5134329;27;20031;-66
2022/09/02 09:23:32;;;;;;;0.45;0.35;;;;;;;19.89;39.09;99247.22;5134557;27;20031;-67
2022/09/02 09:26:06;;;;;;;1.38;0.30;;;;;;;19.85;38.75;99235.16;5133943;27;20517;-69
2022/09/02 09:28:43;;;;;;;0.60;0.30;;;;;;;19.82;38.77;99245.25;5149582;27;20077;-67
2022/09/02 09:31:12;;;;;;;0.52;0.50;;;;;;;19.78;38.75;99243.94;5136096;27;20046;-69
2022/09/02 09:33:37;;;;;;;0.43;0.22;;;;;;;19.78;38.45;99252.00;5134300;27;20031;-68
2022/09/02 09:36:04;;;;;;;0.47;0.22;;;;;;;19.78;38.41;99264.59;5133990;27;20041;-67
2022/09/02 09:38:35;;;;;;;1.25;0.50;;;;;;;19.74;38.39;99274.88;5134368;27;20401;-68
2022/09/02 09:41:33;;;;;;;;;;;;;;;19.63;38.73;99267.31;5134443;27;20027;-65
2022/09/02 09:43:58;;;;;;;3.50;0.32;;;;;;;19.65;38.64;99281.34;5077711;27;19918;-66
2022/09/02 09:46:27;;;;;;;0.77;0.20;;;;;;;19.66;38.27;99281.19;5134145;27;20031;-68
2022/09/02 09:48:53;;;;;;;0.13;0.13;;;;;;;19.63;38.45;99280.72;5134093;27;20084;-69
2022/09/02 09:51:19;;;;;;;0.70;0.20;;;;;;;19.63;38.47;99283.41;5133909;27;20130;-66
2022/09/02 09:53:45;;;;;;;0.70;0.68;;;;;;;19.60;38.21;99287.28;5134153;27;20027;-66
2022/09/02 09:56:17;;;;;;;2.00;0.25;;;;;;;19.60;38.40;99286.47;5133922;27;20026;-66
2022/09/02 09:58:45;;;;;;;3.75;0.32;;;;;;;19.58;38.47;99283.94;5133672;27;20529;-67
2022/09/02 10:01:10;;;;;;;0.55;0.20;;;;;;;19.57;38.33;99276.91;5133948;27;20035;-68
2022/09/02 10:03:41;;;;;;;2.00;0.30;;;;;;;19.57;38.40;99282.28;5134017;27;20103;-68
2022/09/02 10:06:21;;;;;;;0.73;0.20;;;;;;;19.56;38.56;99283.31;5133949;27;20427;-66
2022/09/02 10:08:57;;;;;;;0.32;0.10;;;;;;;19.58;38.61;99285.81;5133613;27;20489;-69
2022/09/02 10:11:26;;;;;;;0.70;0.20;;;;;;;19.59;38.55;99300.91;5133307;27;20080;-66
2022/09/02 10:13:58;;;;;;;0.15;0.10;;;;;;;19.61;38.42;99290.81;5133544;27;20439;-65
2022/09/02 10:16:29;;;;;;;0.63;0.10;;;;;;;19.61;38.23;99296.19;5133727;27;20035;-65
2022/09/02 10:19:18;;;;;;;0.10;0.10;;;;;;;19.60;38.13;99298.03;5133396;28;20142;-66
2022/09/02 10:22:13;;;;;;;1.13;0.20;;;;;;;19.59;38.19;99301.72;5133599;27;20038;-67
2022/09/02 10:24:45;;;;;;;0.52;0.10;;;;;;;19.59;38.08;99303.59;5058008;28;20095;-66
2022/09/02 10:27:23;;;;;;;;;;;;;;;19.53;38.17;99302.47;5113268;28;20103;-68
2022/09/02 10:30:20;;;;;;;0.15;0.08;;;;;;;19.55;37.82;99307.66;5111659;28;20305;-69
2022/09/02 10:33:21;;;;;;;0.47;0.17;;;;;;;19.52;38.22;99320.41;5112735;28;20066;-66
2022/09/02 10:36:16;;;;;;;0.10;0.10;;;;;;;19.55;38.14;99316.56;5113012;28;20054;-66
2022/09/02 10:38:43;;;;;;;3.92;0.30;;;;;;;19.57;37.87;99335.13;5131263;27;20099;-65
2022/09/02 10:41:25;;;;;;;1.40;0.50;;;;;;;19.56;37.92;99345.03;5153843;27;20035;-67
2022/09/02 10:44:08;;;;;;;0.52;0.08;;;;;;;19.57;37.86;99340.50;5136249;27;20043;-68
2022/09/02 10:46:51;;;;;;;0.15;0.10;;;;;;;19.56;38.14;99344.22;5112610;28;20070;-68
2022/09/02 10:49:31;;;;;;;0.00;0.00;;;;;;;19.57;38.19;99359.28;5124500;28;20110;-69
2022/09/02 10:51:57;;;;;;;0.17;0.10;;;;;;;19.54;38.20;99354.28;5133345;27;20031;-66
2022/09/02 10:54:43;;;;;;;0.63;0.20;;;;;;;19.54;38.02;99357.81;5133457;28;20039;-69
2022/09/02 10:57:34;;;;;;;0.40;0.10;;;;;;;19.54;38.06;99362.34;5132635;27;20532;-67
2022/09/02 11:00:11;;;;;;;1.83;0.20;;;;;;;19.50;38.39;99367.25;5123988;28;20494;-68
2022/09/02 11:02:44;;;;;;;2.13;0.30;;;;;;;19.48;38.51;99369.28;5133132;27;20087;-68
2022/09/02 11:05:24;;;;;;;0.17;0.10;;;;;;;19.46;38.77;99361.41;5132959;28;20039;-66
2022/09/02 11:08:14;;;;;;;1.42;0.15;;;;;;;19.43;38.82;99353.72;5132318;27;20060;-69
2022/09/02 11:10:52;;;;;;;1.10;0.25;;;;;;;19.40;39.14;99367.50;5132189;27;20043;-66
2022/09/02 11:13:52;;;;;;;2.55;1.25;;;;;;;19.44;39.17;99374.19;5133248;28;20102;-66
2022/09/02 11:16:41;;;;;;;1.55;0.10;;;;;;;19.50;39.22;99364.56;5128331;27;20035;-69
2022/09/02 11:19:34;;;;;;;0.82;0.30;;;;;;;19.56;39.12;99373.72;5124813;27;20455;-68
2022/09/02 11:22:13;;;;;;;2.70;0.40;;;;;;;19.57;39.01;99368.16;5120601;27;20043;-68
2022/09/02 11:24:46;;;;;;;0.20;0.20;;;;;;;19.55;38.66;99369.38;5133227;27;20045;-66
2022/09/02 11:27:33;;;;;;;0.50;0.20;;;;;;;19.49;38.79;99382.50;5135629;27;20074;-67
2022/09/02 11:30:10;;;;;;;1.17;0.30;;;;;;;19.48;38.82;99375.47;5137114;27;20031;-69
2022/09/02 11:32:38;;;;;;;2.30;0.20;;;;;;;19.47;38.86;99376.50;5136523;27;20400;-66
2022/09/02 11:35:13;;;;;;;1.67;0.30;;;;;;;19.48;38.84;99377.31;5137043;27;20392;-69
2022/09/02 11:37:42;;;;;;;2.03;0.20;;;;;;;19.46;38.92;99372.16;5135986;27;20445;-66
2022/09/02 11:40:36;;;;;;;0.40;0.22;;;;;;;19.45;39.00;99362.44;5136732;27;20031;-68
2022/09/02 11:43:29;;;;;;;0.40;0.30;;;;;;;19.45;38.77;99378.53;5099060;27;20039;-68
2022/09/02 11:46:00;;;;;;;0.45;0.30;;;;;;;19.46;38.77;99382.03;5135775;27;20038;-68